Bentonville, AR (72712)

2:35 PM CDT on July 26, 2016 (GMT -0500)
KARBENTO2 | | Change Station

Elev 1289 ft 36.36 °N, 94.20 °W | Updated 4 seconds ago

Scattered Clouds
Scattered Clouds
86.8 °F
Feels Like 95 °F
N
0.0
Wind Variable Wind from ESE
Gusts 0.0 mph

Today
High -- | Low -- °F
--% Chance of Precip.
Yesterday
High -- | Low -- °F
Precip. -- in
Pressure 30.00 in
Visibility 10.0 miles
Clouds Few 4200 ft
Scattered Clouds 5000 ft
Heat Index 95 °F
Dew Point 74 °F
Humidity 66%
Rainfall 0.00 in
Snow Depth Not available.
6:19 AM 8:27 PM
Waning Gibbous, 52% visible
METAR KVBT 261915Z AUTO 14004KT 10SM FEW042 SCT050 32/21 A3000 RMK AO1 LTG DSNT E
Pressure 30.00 in
Visibility 10.0 miles
Clouds Few 4200 ft
Scattered Clouds 5000 ft
Heat Index 95 °F
Dew Point 74 °F
Humidity 66%
Rainfall 0.00 in
Snow Depth Not available.
6:19 AM 8:27 PM
Waning Gibbous, 52% visible
METAR KVBT 261915Z AUTO 14004KT 10SM FEW042 SCT050 32/21 A3000 RMK AO1 LTG DSNT E

10-Day Weather Forecast

Almanac

Astronomy

Jul. 26, 2016 Rise Set
Actual Time
Civil Twilight
Nautical Twilight
Astronomical Twilight
Moon
Length of Visible Light
Length of Day
Tomorrow will be .
, % of the Moon is Illuminated

Today's Extremes

State Highs State Lows

Community

WunderPhotos

Upload Photos

1,927,665 photos uploaded!

WunderBlog® & News

Nearby

Air Quality

  Air Quality AQ Index Pollutant
Not available.

Snow Depth

Station Depth Elevation

Earthquake Activity

City Distance Mag. Time & Date
Minimum magnitude displayed is 2.5.

Coastal Water Temperatures

Place Temperature

Stations

Nearby Weather Stations

Station Location Temp. Windchill Dew Point Humidity Wind Precip. Elev Updated Type
                   

Watches & Warnings

There are currently no watches in effect.